Helena Regional Airport
KHLN : now visible

Airfield :











YOU CAN JOIN US ON...

 
LOGIN :

Register | Disclaimer

   EN    FR    IT 

 









Legend :    VFR   Marginal VFR   IFR   Intensive IFR   Very Intensive IFR
Visi :
Ceiling :
>= 8 km
>= 3000ft
5 to 8 km
1000 to 3000 ft
1500m to 5 km
500 to 1000 ft
800 to 1500m
200 to 500 ft
< 800m
< 200 ft
Symbols :   Thunderstorms  Fog  Heavy snow  Heavy precipitations  Wind > 20 kt







- Airport Elevation : 3877 ft
- IATA code : HLN


KHLN - Helena Regional

CURRENT METAR :
  • 220653Z 10SM -RA OVC030 06/02 A2985 RMK AO2 SLP126 P0002 T00610022 401110056

EXPIRED METARs :
  • 220553Z 07006KT 10SM -RA OVC030 06/02 A2985 RMK AO2 RAB39 SLP123 P0001 60002 T00610022 10078 20061 51018
  • 220453Z 33005KT 10SM OVC050 06/04 A2983 RMK AO2 SLP116 T00610039

TAF KHLN
Valid from the 22 at 06:00 until the 23 at 06:00 UTC


220543Z 2206/2306 VRB05KT P6SM -SHRA SCT020 OVC050
TEMPO 2211/2215 4SM -RA BR BKN020
FM221800 02010G20KT P6SM SCT030 OVC070
PROB30 2219/2301 -RA BKN030
KZLC FIR / North America



MET'MAP, your aeronautical weather chart ! - Copyright ORBIFLY December 2007 - Disclaimer

ORBIFLY MET'MAP TEAM :

Programming & Development : Alexandra Zaïnal
Concept & Development : Baudouin d'Aumeries
Co-Development & Prog : Marc-Olivier Méhu
Technical & hardware support : Manuel Goepfert

Contact : metmap@orbifly.com




SOURCES & CREDITS :

   NOAA       Earth
Advisory